Missoula, MT

2:24 AM MDT on September 21, 2014 (GMT -0600)
Missoula International | Change Station
CLOSE
Current Station
Airport
Location: Missoula,
Elevation: 3189 ft
Nearby Weather Stations

Elev 3189 ft 46.92 °N, 114.09 °W | Updated 31 minutes ago

Clear
Clear
50 °F
Feels Like 50 °F
N
4
Wind Variable Wind from NW

Today
High -- | Low -- °F
--% Chance of Precip.
Yesterday
High -- | Low -- °F
Precip. -- in
7:22 AM 7:35 PM
Waning Crescent, 8% visible
Pressure 30.16 in
Visibility 10.0 miles
Clouds Clear
Dew Point 40 °F
Humidity 68%
Rainfall 0.00 in
Snow Depth Not available.
UV 0 out of 12
Pollen 6.30 out of 12
Air Quality Not available.
Flu Activity Not available.
METAR KMSO 210753Z AUTO 32003KT 10SM CLR 10/04 A3018 RMK AO2 SLP211 T01000044

More Conditions Fewer Conditions

Pressure 30.16 in
Visibility 10.0 miles
Clouds Clear
Dew Point 40 °F
Humidity 68%
Rainfall 0.00 in
Snow Depth Not available.
UV 0 out of 12
Pollen 6.30 out of 12
Air Quality Not available.
Flu Activity Not available.
METAR KMSO 210753Z AUTO 32003KT 10SM CLR 10/04 A3018 RMK AO2 SLP211 T01000044

More Conditions Fewer Conditions

10-Day Weather Forecast

Almanac

Astronomy

Sep. 21, 2014 Rise Set
Actual Time 7:22 AM MDT 7:35 PM MDT
Civil Twilight 6:51 AM MDT 8:06 PM MDT
Nautical Twilight 6:15 AM MDT 8:41 PM MDT
Astronomical Twilight 5:38 AM MDT 9:18 PM MDT
Moon 4:52 AM MDT 6:19 PM MDT
Length of Visible Light 13h 14m
Length of Day
12h 13m
Tomorrow will be 3m 20s shorter.
Waning Crescent, 8% of the Moon is Illuminated
Today
Waning Crescent
Sep 24
New
Oct 1
First Quarter
Oct 8
Full
Oct 15
Last Quarter

Today's Extremes

State Highs State Lows

Community

WunderPhotos

Upload Photos

1,755,101 photos uploaded!

Nearby

Snow Depth

Station Depth Elevation
Monument Peak 0 in 8850 ft
Burnt Mountain 0 in 5880 ft
Cole Creek 1 in 7850 ft
Lakeview Ridge 0 in 7400 ft
Mule Creek 1 in 8300 ft

Earthquake Activity

City Distance Mag. Time & Date
No recent earthquake activity has been reported nearby.
Minimum magnitude displayed is 2.5.

Coastal Water Temperatures

Place Temperature
No Stations Reporting

Nearby Weather Stations